createdAt,value
2023-01-31T00:01:26.652Z,4.75
2023-01-31T00:04:01.236Z,3.60
2023-01-31T00:06:31.690Z,4.65
2023-01-31T00:09:00.425Z,4.30
2023-01-31T00:11:29.317Z,4.13
2023-01-31T00:13:58.553Z,4.07
2023-01-31T00:16:26.742Z,4.47
2023-01-31T00:18:53.956Z,5.00
2023-01-31T00:21:26.412Z,3.92
2023-01-31T00:23:54.838Z,4.65
2023-01-31T00:26:24.994Z,4.78
2023-01-31T00:28:54.847Z,4.13
2023-01-31T00:31:24.101Z,5.05
2023-01-31T00:33:52.851Z,4.47
2023-01-31T00:36:28.099Z,6.05
2023-01-31T00:38:57.584Z,5.45
2023-01-31T00:41:26.520Z,5.55
2023-01-31T00:43:53.702Z,4.60
2023-01-31T00:46:22.167Z,5.22
2023-01-31T00:48:50.069Z,6.45
2023-01-31T00:51:18.047Z,5.68
2023-01-31T00:53:45.471Z,5.90
2023-01-31T00:56:15.165Z,7.68
2023-01-31T00:58:42.590Z,5.53
2023-01-31T01:01:15.875Z,5.97
2023-01-31T01:03:44.920Z,7.05
2023-01-31T01:06:12.470Z,5.45
2023-01-31T01:08:43.532Z,5.13
2023-01-31T01:11:19.938Z,7.72
2023-01-31T01:13:47.532Z,6.10
2023-01-31T01:16:21.053Z,5.45
2023-01-31T01:18:50.204Z,5.13
2023-01-31T01:21:20.079Z,6.32
2023-01-31T01:23:47.430Z,5.32
2023-01-31T01:26:21.478Z,4.63
2023-01-31T01:28:50.126Z,5.07
2023-01-31T01:31:18.845Z,5.30
2023-01-31T01:33:47.891Z,5.30
2023-01-31T01:36:17.245Z,4.63
2023-01-31T01:38:45.596Z,6.95
2023-01-31T01:41:13.981Z,4.20
2023-01-31T01:43:57.435Z,5.38
2023-01-31T01:46:43.928Z,4.82
2023-01-31T01:49:20.654Z,5.25
2023-01-31T01:51:52.453Z,4.28
2023-01-31T01:54:27.030Z,5.93
2023-01-31T01:56:58.169Z,5.63
2023-01-31T01:59:31.328Z,7.25
2023-01-31T02:01:58.450Z,4.45
2023-01-31T02:04:33.117Z,4.35
2023-01-31T02:09:48.676Z,4.90
2023-01-31T02:12:15.876Z,5.07
2023-01-31T02:14:45.332Z,4.78
2023-01-31T02:17:17.726Z,5.50
2023-01-31T02:20:03.827Z,4.63
2023-01-31T02:23:10.043Z,4.70
2023-01-31T02:25:58.560Z,4.47
2023-01-31T02:28:52.419Z,4.60
2023-01-31T02:31:47.434Z,4.22
2023-01-31T02:34:27.420Z,7.25
2023-01-31T02:37:15.052Z,5.10
2023-01-31T02:39:51.930Z,4.10
2023-01-31T02:42:19.511Z,5.20
2023-01-31T02:45:01.167Z,3.97
2023-01-31T02:47:59.655Z,4.43
2023-01-31T02:50:35.922Z,3.80
2023-01-31T02:53:17.343Z,4.50
2023-01-31T02:56:18.219Z,4.55
2023-01-31T02:59:04.561Z,5.13
2023-01-31T03:01:35.771Z,5.28
2023-01-31T03:04:06.005Z,4.13
2023-01-31T03:06:34.223Z,3.75
2023-01-31T03:09:09.285Z,4.28
2023-01-31T03:12:14.406Z,4.88
2023-01-31T03:14:46.154Z,4.40
2023-01-31T03:17:47.705Z,3.75
2023-01-31T03:20:23.847Z,5.70
2023-01-31T03:23:05.155Z,4.70
2023-01-31T03:25:36.260Z,4.68
2023-01-31T03:28:12.944Z,4.45
2023-01-31T03:30:48.660Z,3.30
2023-01-31T03:33:23.219Z,3.13
2023-01-31T03:35:59.593Z,5.35
2023-01-31T03:38:35.303Z,3.72
2023-01-31T03:41:10.924Z,3.80
2023-01-31T03:43:50.463Z,3.50
2023-01-31T03:46:24.522Z,4.43
2023-01-31T03:48:54.770Z,3.55
2023-01-31T03:51:28.917Z,4.65
2023-01-31T03:54:04.869Z,5.15
2023-01-31T03:56:40.247Z,3.42
2023-01-31T03:59:11.851Z,4.00
2023-01-31T04:01:44.405Z,5.07
2023-01-31T04:06:43.608Z,4.22
2023-01-31T04:09:10.904Z,3.95
2023-01-31T04:11:42.223Z,3.95
2023-01-31T04:14:10.175Z,4.88
2023-01-31T04:16:37.185Z,4.15
2023-01-31T04:19:04.199Z,4.50
2023-01-31T04:21:31.366Z,4.47
2023-01-31T04:23:58.363Z,5.00
2023-01-31T04:26:25.389Z,3.53
2023-01-31T04:28:52.607Z,4.38
2023-01-31T04:31:19.801Z,7.28
2023-01-31T04:33:46.882Z,4.07
2023-01-31T04:36:13.966Z,3.85
2023-01-31T04:38:41.000Z,3.25
2023-01-31T04:41:08.399Z,3.80
2023-01-31T04:43:35.443Z,5.18
2023-01-31T04:46:02.462Z,4.82
2023-01-31T04:48:30.084Z,4.70
2023-01-31T04:50:57.150Z,3.47
2023-01-31T04:53:24.151Z,4.72
2023-01-31T04:55:55.016Z,4.38
2023-01-31T04:58:25.135Z,4.18
2023-01-31T05:00:53.940Z,4.25
2023-01-31T05:03:21.298Z,4.80
2023-01-31T05:05:49.079Z,4.20
2023-01-31T05:08:17.149Z,3.38
2023-01-31T05:10:44.277Z,4.07
2023-01-31T05:13:11.556Z,3.42
2023-01-31T05:15:40.244Z,3.40
2023-01-31T05:18:07.345Z,4.03
2023-01-31T05:20:39.715Z,4.35
2023-01-31T05:23:07.437Z,3.25
2023-01-31T05:25:36.105Z,3.42
2023-01-31T05:28:04.913Z,3.50
2023-01-31T05:30:32.583Z,5.03
2023-01-31T05:32:59.799Z,3.08
2023-01-31T05:35:27.027Z,2.67
2023-01-31T05:37:54.845Z,2.00
2023-01-31T05:40:22.284Z,2.45
2023-01-31T05:42:56.890Z,4.13
2023-01-31T05:45:24.046Z,2.83
2023-01-31T05:47:51.393Z,4.15
2023-01-31T05:50:18.737Z,3.60
2023-01-31T05:53:03.216Z,3.97
2023-01-31T05:55:31.161Z,4.20
2023-01-31T05:58:01.267Z,3.97
2023-01-31T06:00:28.527Z,3.63
2023-01-31T06:02:59.577Z,4.78
2023-01-31T06:05:27.349Z,3.25
2023-01-31T06:07:55.178Z,3.20
2023-01-31T06:10:22.679Z,3.38
2023-01-31T06:12:49.709Z,3.95
2023-01-31T06:15:16.966Z,3.90
2023-01-31T06:17:44.087Z,4.93
2023-01-31T06:20:11.433Z,3.15
2023-01-31T06:22:38.478Z,4.10
2023-01-31T06:25:06.429Z,2.97
2023-01-31T06:27:34.519Z,3.38
2023-01-31T06:30:01.787Z,3.17
2023-01-31T06:32:28.885Z,3.80
2023-01-31T06:34:56.231Z,4.50
2023-01-31T06:37:23.294Z,2.80
2023-01-31T06:39:50.304Z,3.03
2023-01-31T06:42:17.301Z,3.47
2023-01-31T06:44:44.483Z,3.33
2023-01-31T06:47:12.974Z,3.38
2023-01-31T06:49:40.172Z,2.90
2023-01-31T06:52:07.417Z,3.28
2023-01-31T06:54:34.479Z,2.78
2023-01-31T06:57:01.580Z,4.03
2023-01-31T06:59:28.604Z,3.67
2023-01-31T07:01:55.712Z,4.80
2023-01-31T07:04:22.985Z,4.10
2023-01-31T07:06:50.064Z,3.80
2023-01-31T07:09:17.090Z,3.53
2023-01-31T07:11:44.173Z,3.17
2023-01-31T07:14:11.200Z,4.05
2023-01-31T07:16:38.243Z,2.88
2023-01-31T07:19:05.339Z,5.35
2023-01-31T07:21:33.332Z,4.20
2023-01-31T07:24:00.343Z,4.28
2023-01-31T07:26:27.440Z,3.75
2023-01-31T07:28:54.567Z,3.75
2023-01-31T07:31:21.862Z,4.18
2023-01-31T07:33:49.029Z,4.97
2023-01-31T07:36:16.504Z,5.13
2023-01-31T07:38:43.658Z,3.70
2023-01-31T07:41:11.647Z,5.00
2023-01-31T07:43:38.938Z,3.80
2023-01-31T07:46:09.394Z,5.25
2023-01-31T07:48:37.241Z,3.88
2023-01-31T07:51:05.218Z,4.55
2023-01-31T07:53:34.430Z,4.35
2023-01-31T07:56:08.566Z,3.85
2023-01-31T07:58:36.257Z,4.25
2023-01-31T08:01:22.583Z,4.75
2023-01-31T08:03:50.431Z,4.28
2023-01-31T08:06:18.272Z,4.72
2023-01-31T08:08:46.105Z,4.25
2023-01-31T08:11:13.480Z,4.22
2023-01-31T08:13:40.792Z,3.95
2023-01-31T08:16:09.765Z,4.18
2023-01-31T08:18:37.749Z,4.53
2023-01-31T08:21:05.943Z,3.63
2023-01-31T08:23:33.357Z,4.00
2023-01-31T08:26:05.495Z,4.70
2023-01-31T08:28:33.180Z,4.03
2023-01-31T08:31:08.564Z,3.85
2023-01-31T08:33:38.281Z,4.78
2023-01-31T08:36:26.072Z,3.67
2023-01-31T08:38:53.992Z,4.97
2023-01-31T08:41:24.581Z,4.35
2023-01-31T08:43:56.720Z,4.35
2023-01-31T08:46:26.906Z,4.75
2023-01-31T08:48:54.439Z,4.60
2023-01-31T08:51:22.617Z,4.55
2023-01-31T08:53:50.198Z,5.45
2023-01-31T08:56:17.412Z,4.57
2023-01-31T08:58:44.991Z,3.95
2023-01-31T09:01:15.101Z,3.83
2023-01-31T09:03:44.687Z,3.13
2023-01-31T09:06:20.317Z,4.57
2023-01-31T09:08:47.847Z,4.43
2023-01-31T09:11:17.493Z,4.68
2023-01-31T09:13:52.283Z,3.83
2023-01-31T09:16:19.692Z,3.95
2023-01-31T09:18:47.241Z,4.03
2023-01-31T09:21:17.437Z,6.00
2023-01-31T09:23:45.187Z,3.88
2023-01-31T09:26:13.401Z,4.15
2023-01-31T09:28:43.773Z,4.50
2023-01-31T09:31:13.960Z,3.65
2023-01-31T09:33:41.342Z,4.32
2023-01-31T09:36:10.802Z,3.60
2023-01-31T09:38:38.264Z,3.80
2023-01-31T09:41:19.649Z,3.45
2023-01-31T09:43:55.683Z,3.60
2023-01-31T09:46:27.263Z,3.78
2023-01-31T09:48:57.799Z,4.57
2023-01-31T09:51:25.151Z,4.03
2023-01-31T09:53:54.805Z,4.13
2023-01-31T09:56:25.950Z,3.60
2023-01-31T09:59:01.834Z,3.83
2023-01-31T10:01:34.751Z,5.25
2023-01-31T10:04:28.627Z,3.78
2023-01-31T10:07:04.435Z,4.32
2023-01-31T10:09:44.168Z,4.65
2023-01-31T10:12:16.297Z,4.32
2023-01-31T10:14:54.119Z,3.95
2023-01-31T10:17:39.212Z,3.72
2023-01-31T10:20:20.035Z,4.35
2023-01-31T10:23:00.320Z,4.93
2023-01-31T10:25:48.614Z,4.03
2023-01-31T10:28:20.281Z,4.13
2023-01-31T10:30:55.553Z,4.32
2023-01-31T10:33:38.382Z,5.00
2023-01-31T10:38:49.368Z,4.45
2023-01-31T10:41:25.542Z,4.22
2023-01-31T10:44:00.229Z,4.80
2023-01-31T10:46:27.716Z,4.38
2023-01-31T10:48:54.877Z,4.25
2023-01-31T10:51:40.575Z,5.03
2023-01-31T10:54:18.852Z,4.57
2023-01-31T10:56:49.449Z,4.82
2023-01-31T10:59:37.439Z,4.78
2023-01-31T11:02:05.302Z,4.03
2023-01-31T11:04:40.440Z,4.50
2023-01-31T11:07:09.447Z,3.90
2023-01-31T11:09:43.050Z,4.03
2023-01-31T11:12:10.265Z,4.38
2023-01-31T11:14:37.570Z,4.72
2023-01-31T11:17:22.997Z,4.22
2023-01-31T11:19:52.574Z,5.90
2023-01-31T11:22:26.990Z,4.60
2023-01-31T11:24:55.787Z,4.30
2023-01-31T11:27:29.102Z,4.20
2023-01-31T11:30:00.147Z,4.60
2023-01-31T11:32:31.882Z,5.15
2023-01-31T11:35:00.926Z,4.50
2023-01-31T11:37:29.668Z,4.55
2023-01-31T11:40:02.374Z,6.07
2023-01-31T11:42:29.438Z,4.85
2023-01-31T11:44:59.822Z,5.47
2023-01-31T11:47:46.815Z,5.10
2023-01-31T11:50:22.648Z,4.32
2023-01-31T11:52:58.927Z,4.82
2023-01-31T11:55:27.640Z,4.00
2023-01-31T11:57:57.810Z,4.97
2023-01-31T12:00:31.009Z,4.45
2023-01-31T12:03:08.901Z,4.03
2023-01-31T12:05:41.362Z,4.00
2023-01-31T12:08:33.325Z,4.72
2023-01-31T12:11:04.915Z,4.57
2023-01-31T12:13:44.852Z,4.27
2023-01-31T12:16:12.356Z,4.18
2023-01-31T12:18:47.949Z,4.35
2023-01-31T12:21:16.509Z,3.38
2023-01-31T12:24:07.374Z,3.88
2023-01-31T12:26:55.127Z,3.85
2023-01-31T12:29:41.696Z,3.88
2023-01-31T12:32:35.348Z,3.75
2023-01-31T12:35:35.008Z,3.67
2023-01-31T12:38:24.835Z,4.57
2023-01-31T12:41:04.061Z,5.40
2023-01-31T12:43:56.520Z,5.22
2023-01-31T12:47:08.435Z,5.30
2023-01-31T12:52:46.459Z,4.93
2023-01-31T12:55:25.337Z,4.45
2023-01-31T12:58:11.557Z,4.40
2023-01-31T13:01:01.002Z,4.22
2023-01-31T13:03:34.217Z,3.40
2023-01-31T13:06:06.981Z,3.60
2023-01-31T13:08:37.820Z,4.25
2023-01-31T13:11:13.500Z,3.70
2023-01-31T13:13:46.023Z,4.20
2023-01-31T13:18:54.367Z,4.57
2023-01-31T13:21:27.132Z,5.68
2023-01-31T13:23:59.692Z,5.00
2023-01-31T13:29:25.377Z,5.18
2023-01-31T13:32:04.616Z,6.22
2023-01-31T13:34:41.115Z,4.93
2023-01-31T13:37:13.193Z,5.72
2023-01-31T13:39:48.006Z,6.55
2023-01-31T13:42:16.240Z,5.70
2023-01-31T13:44:44.215Z,6.13
2023-01-31T13:47:26.235Z,6.18
2023-01-31T13:50:08.108Z,5.88
2023-01-31T13:52:41.789Z,5.65
2023-01-31T13:55:41.375Z,6.60
2023-01-31T13:58:19.514Z,6.57
2023-01-31T14:00:59.266Z,6.55
2023-01-31T14:03:26.474Z,6.20
2023-01-31T14:05:59.260Z,6.18
2023-01-31T14:08:26.236Z,6.82
2023-01-31T14:10:55.858Z,6.43
2023-01-31T14:13:42.082Z,6.68
2023-01-31T14:16:45.922Z,7.88
2023-01-31T14:19:19.083Z,9.35
2023-01-31T14:22:14.892Z,7.10
2023-01-31T14:24:55.836Z,7.55
2023-01-31T14:27:24.603Z,7.07
2023-01-31T14:30:21.043Z,6.10
2023-01-31T14:33:07.990Z,5.72
2023-01-31T14:35:49.921Z,7.30
2023-01-31T14:39:02.823Z,6.33
2023-01-31T14:41:50.939Z,6.35
2023-01-31T14:44:52.072Z,5.47
2023-01-31T14:47:29.520Z,5.60
2023-01-31T14:50:07.453Z,5.25
2023-01-31T14:52:57.008Z,5.78
2023-01-31T14:56:01.642Z,5.38
2023-01-31T14:58:32.090Z,6.78
2023-01-31T15:01:02.251Z,5.82
2023-01-31T15:03:38.884Z,4.97
2023-01-31T15:06:13.146Z,5.45
2023-01-31T15:08:42.334Z,5.30
2023-01-31T15:11:14.740Z,6.32
2023-01-31T15:13:50.119Z,5.18
2023-01-31T15:16:35.295Z,4.47
2023-01-31T15:19:13.593Z,5.55
2023-01-31T15:21:48.533Z,4.57
2023-01-31T15:24:20.786Z,5.40
2023-01-31T15:26:49.566Z,4.82
2023-01-31T15:29:24.089Z,4.15
2023-01-31T15:31:59.067Z,3.90
2023-01-31T15:34:32.535Z,3.47
2023-01-31T15:37:06.293Z,4.10
2023-01-31T15:39:41.968Z,3.60
2023-01-31T15:42:33.112Z,4.10
2023-01-31T15:45:32.297Z,3.20
2023-01-31T15:48:00.451Z,3.65
2023-01-31T15:50:31.115Z,4.00
2023-01-31T15:53:06.818Z,3.03
2023-01-31T15:55:36.162Z,3.03
2023-01-31T15:58:07.007Z,2.97
2023-01-31T16:00:37.025Z,2.83
2023-01-31T16:03:07.970Z,3.40
2023-01-31T16:05:37.705Z,3.47
2023-01-31T16:08:20.847Z,3.15
2023-01-31T16:10:49.567Z,4.20
2023-01-31T16:13:17.903Z,3.95
2023-01-31T16:15:45.572Z,2.90
2023-01-31T16:18:17.438Z,3.05
2023-01-31T16:20:50.425Z,3.20
2023-01-31T16:23:36.108Z,3.08
2023-01-31T16:26:06.481Z,2.70
2023-01-31T16:28:40.689Z,2.80
2023-01-31T16:31:10.872Z,2.50
2023-01-31T16:33:46.870Z,2.10
2023-01-31T16:36:17.516Z,2.95
2023-01-31T16:38:57.299Z,3.25
2023-01-31T16:41:47.827Z,2.00
2023-01-31T16:44:19.395Z,2.40
2023-01-31T16:46:48.936Z,1.80
2023-01-31T16:49:21.949Z,2.50
2023-01-31T16:51:51.410Z,1.90
2023-01-31T16:54:30.579Z,1.38
2023-01-31T16:57:03.530Z,1.60
2023-01-31T16:59:33.598Z,1.70
2023-01-31T17:02:24.340Z,1.60
2023-01-31T17:04:54.387Z,1.88
2023-01-31T17:07:24.292Z,2.05
2023-01-31T17:09:57.248Z,1.70
2023-01-31T17:12:29.599Z,1.75
2023-01-31T17:15:00.813Z,1.50
2023-01-31T17:17:34.737Z,1.65
2023-01-31T17:20:01.828Z,2.10
2023-01-31T17:22:28.893Z,2.03
2023-01-31T17:24:56.148Z,1.95
2023-01-31T17:27:23.843Z,2.05
2023-01-31T17:29:50.925Z,2.22
2023-01-31T17:32:20.657Z,2.13
2023-01-31T17:34:50.644Z,2.28
2023-01-31T17:37:30.157Z,2.70
2023-01-31T17:39:58.741Z,2.47
2023-01-31T17:42:25.756Z,3.08
2023-01-31T17:44:52.741Z,3.70
2023-01-31T17:47:20.179Z,4.95
2023-01-31T17:49:47.274Z,3.85
2023-01-31T17:52:14.340Z,4.93
2023-01-31T17:54:41.365Z,4.60
2023-01-31T17:57:08.403Z,6.15
2023-01-31T17:59:35.453Z,5.43
2023-01-31T18:02:03.158Z,6.00
2023-01-31T18:04:30.238Z,6.45
2023-01-31T18:06:57.258Z,6.25
2023-01-31T18:09:25.661Z,6.28
2023-01-31T18:11:52.688Z,6.57
2023-01-31T18:14:19.767Z,6.93
2023-01-31T18:16:50.592Z,6.18
2023-01-31T18:19:17.606Z,7.90
2023-01-31T18:21:54.341Z,6.82
2023-01-31T18:24:22.216Z,8.02
2023-01-31T18:26:49.348Z,6.72
2023-01-31T18:29:19.810Z,7.28
2023-01-31T18:31:49.953Z,7.55
2023-01-31T18:34:17.226Z,7.85
2023-01-31T18:36:44.278Z,8.20
2023-01-31T18:39:11.286Z,6.95
2023-01-31T18:41:38.633Z,8.02
2023-01-31T18:44:05.882Z,8.32
2023-01-31T18:46:32.982Z,7.75
2023-01-31T18:49:00.022Z,7.38
2023-01-31T18:51:27.021Z,7.35
2023-01-31T18:53:54.074Z,7.65
2023-01-31T18:56:22.117Z,7.72
2023-01-31T18:58:49.815Z,7.95
2023-01-31T19:01:22.224Z,8.30
2023-01-31T19:03:52.831Z,8.27
2023-01-31T19:06:22.798Z,6.60
2023-01-31T19:08:51.428Z,7.65
2023-01-31T19:11:20.207Z,8.07
2023-01-31T19:13:47.634Z,8.45
2023-01-31T19:16:17.485Z,8.73
2023-01-31T19:18:44.827Z,9.27
2023-01-31T19:21:32.076Z,8.60
2023-01-31T19:24:07.074Z,9.50
2023-01-31T19:26:35.424Z,8.80
2023-01-31T19:29:03.929Z,9.25
2023-01-31T19:31:32.593Z,9.27
2023-01-31T19:34:04.597Z,9.48
2023-01-31T19:36:35.020Z,10.55
2023-01-31T19:39:04.847Z,9.25
2023-01-31T19:41:33.172Z,9.13
2023-01-31T19:44:01.683Z,10.00
2023-01-31T19:46:30.934Z,9.80
2023-01-31T19:48:59.048Z,10.70
2023-01-31T19:51:26.752Z,9.80
2023-01-31T19:53:56.020Z,9.63
2023-01-31T19:56:24.178Z,9.20
2023-01-31T19:58:51.418Z,10.18
2023-01-31T20:01:18.773Z,8.70
2023-01-31T20:03:46.562Z,8.02
2023-01-31T20:06:19.557Z,8.15
2023-01-31T20:08:50.868Z,8.55
2023-01-31T20:11:18.275Z,7.45
2023-01-31T20:13:45.404Z,7.88
2023-01-31T20:16:13.432Z,8.40
2023-01-31T20:18:41.628Z,8.20
2023-01-31T20:21:14.675Z,8.30
2023-01-31T20:23:42.133Z,8.32
2023-01-31T20:26:11.737Z,9.02
2023-01-31T20:28:39.309Z,9.20
2023-01-31T20:31:08.465Z,8.85
2023-01-31T20:33:36.005Z,8.90
2023-01-31T20:36:03.381Z,9.55
2023-01-31T20:38:31.021Z,8.90
2023-01-31T20:40:58.080Z,8.30
2023-01-31T20:43:26.731Z,9.27
2023-01-31T20:46:00.939Z,8.45
2023-01-31T20:48:28.000Z,9.52
2023-01-31T20:50:56.270Z,10.32
2023-01-31T20:53:24.288Z,9.65
2023-01-31T20:56:10.575Z,10.40
2023-01-31T20:58:39.883Z,11.88
2023-01-31T21:01:08.916Z,11.98
2023-01-31T21:03:36.839Z,9.95
2023-01-31T21:06:05.220Z,10.48
2023-01-31T21:08:32.766Z,11.20
2023-01-31T21:11:04.230Z,11.48
2023-01-31T21:13:32.904Z,10.85
2023-01-31T21:16:03.279Z,11.23
2023-01-31T21:18:33.240Z,10.23
2023-01-31T21:21:03.835Z,11.18
2023-01-31T21:23:30.814Z,11.02
2023-01-31T21:26:06.366Z,9.63
2023-01-31T21:28:33.820Z,10.85
2023-01-31T21:31:05.414Z,8.57
2023-01-31T21:33:32.545Z,8.80
2023-01-31T21:36:00.604Z,9.27
2023-01-31T21:38:27.775Z,9.02
2023-01-31T21:41:14.770Z,7.78
2023-01-31T21:43:41.965Z,6.32
2023-01-31T21:46:10.376Z,6.22
2023-01-31T21:48:37.869Z,6.13
2023-01-31T21:51:11.150Z,6.18
2023-01-31T21:53:39.208Z,6.00
2023-01-31T21:56:07.571Z,4.70
2023-01-31T21:58:36.726Z,5.05
2023-01-31T22:01:15.652Z,4.60
2023-01-31T22:03:42.865Z,3.55
2023-01-31T22:06:13.059Z,2.67
2023-01-31T22:08:40.179Z,4.07
2023-01-31T22:11:14.814Z,3.35
2023-01-31T22:13:47.101Z,2.97
2023-01-31T22:16:16.209Z,3.33
2023-01-31T22:18:44.368Z,2.47
2023-01-31T22:21:16.970Z,2.40
2023-01-31T22:26:22.309Z,2.15
2023-01-31T22:28:50.189Z,1.80
2023-01-31T22:31:19.337Z,1.63
2023-01-31T22:33:46.621Z,3.13
2023-01-31T22:36:15.271Z,2.88
2023-01-31T22:38:43.173Z,1.80
2023-01-31T22:41:13.444Z,2.28
2023-01-31T22:43:42.596Z,2.88
2023-01-31T22:46:15.531Z,3.00
2023-01-31T22:48:42.637Z,2.17
2023-01-31T22:51:12.846Z,2.67
2023-01-31T22:53:41.239Z,2.72
2023-01-31T22:56:14.184Z,3.08
2023-01-31T22:58:41.421Z,2.80
2023-01-31T23:01:20.250Z,3.45
2023-01-31T23:03:48.313Z,3.28
2023-01-31T23:06:17.489Z,3.92
2023-01-31T23:08:45.400Z,4.38
2023-01-31T23:11:15.156Z,3.55
2023-01-31T23:13:43.105Z,4.07
2023-01-31T23:16:16.497Z,4.30
2023-01-31T23:18:43.714Z,3.33
2023-01-31T23:21:15.269Z,3.65
2023-01-31T23:23:43.353Z,4.28
2023-01-31T23:26:11.732Z,3.80
2023-01-31T23:28:38.922Z,4.57
2023-01-31T23:31:06.776Z,4.90
2023-01-31T23:33:33.935Z,4.13
2023-01-31T23:36:01.054Z,4.13
2023-01-31T23:38:28.073Z,4.22
2023-01-31T23:40:55.315Z,5.63
2023-01-31T23:43:22.785Z,4.88
2023-01-31T23:45:50.093Z,4.10
2023-01-31T23:48:17.769Z,4.80
2023-01-31T23:50:44.787Z,5.32
2023-01-31T23:53:11.817Z,5.53
2023-01-31T23:55:38.829Z,5.28
2023-01-31T23:58:05.973Z,5.55
